Dardanelle, AR

3:01 AM CST on February 07, 2016 (GMT -0600)
APRSWXNET | | Change Station
CLOSE
Current Station
Personal Weather Station
Location: Russellville, AR
Elevation: 367 ft
Nearby Weather Stations

Elev 367 ft 35.25 °N, 93.14 °W | Updated 31 minutes ago

Clear
Clear
32 °F
Feels Like 32 °F
N
0
Wind Variable Wind from North
Gusts 0.0 mph

Today
High -- | Low -- °F
--% Chance of Precip.
Yesterday
High -- | Low -- °F
Precip. -- in
Pressure 30.23 in
Visibility 6.0 miles
Clouds Clear
Windchill 32 °F
Dew Point 29 °F
Humidity 87%
Rainfall in
Snow Depth Not available.
7:07 AM 5:46 PM
Waning Crescent, 2% visible
METAR KRUE 070853Z AUTO 00000KT 6SM HZ CLR M02/M04 A3024 RMK AO2 SLP237 T10171044 56009
Pressure 30.23 in
Visibility 6.0 miles
Clouds Clear
Windchill 32 °F
Dew Point 29 °F
Humidity 87%
Rainfall in
Snow Depth Not available.
7:07 AM 5:46 PM
Waning Crescent, 2% visible
METAR KRUE 070853Z AUTO 00000KT 6SM HZ CLR M02/M04 A3024 RMK AO2 SLP237 T10171044 56009

10-Day Weather Forecast

Almanac

Astronomy

Feb. 07, 2016 Rise Set
Actual Time
Civil Twilight
Nautical Twilight
Astronomical Twilight
Moon
Length of Visible Light
Length of Day
Tomorrow will be .
, % of the Moon is Illuminated

Today's Extremes

State Highs State Lows

Community

WunderPhotos

Upload Photos

1,891,171 photos uploaded!

WunderBlog® & News

Nearby

Air Quality

  Air Quality AQ Index Pollutant
Not available.

Snow Depth

Station Depth Elevation

Earthquake Activity

City Distance Mag. Time & Date
Minimum magnitude displayed is 2.5.

Coastal Water Temperatures

Place Temperature

Stations

Nearby Weather Stations

Station Location Temp. Windchill Dew Point Humidity Wind Precip. Elev Updated Type
                   

Watches & Warnings

There are currently no watches in effect.